sensor_id;sensor_type;location;lat;lon;timestamp;P1;durP1;ratioP1;P2;durP2;ratioP2
72125;SDS011;59999;51.676;22.650;2022-08-19T00:01:25;24.33;;;17.67;;
72125;SDS011;59999;51.676;22.650;2022-08-19T00:03:55;23.83;;;17.20;;
72125;SDS011;59999;51.676;22.650;2022-08-19T00:06:30;23.85;;;17.40;;
72125;SDS011;59999;51.676;22.650;2022-08-19T00:08:56;27.92;;;18.58;;
72125;SDS011;59999;51.676;22.650;2022-08-19T00:11:25;27.20;;;18.35;;
72125;SDS011;59999;51.676;22.650;2022-08-19T00:13:54;25.70;;;18.40;;
72125;SDS011;59999;51.676;22.650;2022-08-19T00:16:22;24.03;;;17.47;;
72125;SDS011;59999;51.676;22.650;2022-08-19T00:18:49;28.65;;;16.95;;
72125;SDS011;59999;51.676;22.650;2022-08-19T00:21:15;25.73;;;18.10;;
72125;SDS011;59999;51.676;22.650;2022-08-19T00:23:42;27.38;;;18.90;;
72125;SDS011;59999;51.676;22.650;2022-08-19T00:26:09;27.80;;;19.88;;
72125;SDS011;59999;51.676;22.650;2022-08-19T00:28:36;27.47;;;18.70;;
72125;SDS011;59999;51.676;22.650;2022-08-19T00:31:03;24.40;;;18.58;;
72125;SDS011;59999;51.676;22.650;2022-08-19T00:33:30;27.23;;;18.52;;
72125;SDS011;59999;51.676;22.650;2022-08-19T00:36:06;27.63;;;18.05;;
72125;SDS011;59999;51.676;22.650;2022-08-19T00:38:34;26.88;;;18.75;;
72125;SDS011;59999;51.676;22.650;2022-08-19T00:41:01;25.90;;;18.63;;
72125;SDS011;59999;51.676;22.650;2022-08-19T00:43:27;28.20;;;17.88;;
72125;SDS011;59999;51.676;22.650;2022-08-19T00:45:54;28.85;;;18.98;;
72125;SDS011;59999;51.676;22.650;2022-08-19T00:48:20;27.27;;;18.70;;
72125;SDS011;59999;51.676;22.650;2022-08-19T00:50:47;27.05;;;18.70;;
72125;SDS011;59999;51.676;22.650;2022-08-19T00:53:16;27.23;;;18.90;;
72125;SDS011;59999;51.676;22.650;2022-08-19T00:55:48;27.27;;;18.80;;
72125;SDS011;59999;51.676;22.650;2022-08-19T00:58:17;26.02;;;19.45;;
72125;SDS011;59999;51.676;22.650;2022-08-19T01:00:50;26.45;;;18.48;;
72125;SDS011;59999;51.676;22.650;2022-08-19T01:03:17;30.77;;;20.50;;
72125;SDS011;59999;51.676;22.650;2022-08-19T01:05:44;28.53;;;19.73;;
72125;SDS011;59999;51.676;22.650;2022-08-19T01:08:13;30.27;;;20.45;;
72125;SDS011;59999;51.676;22.650;2022-08-19T01:10:58;33.80;;;22.02;;
72125;SDS011;59999;51.676;22.650;2022-08-19T01:13:26;31.38;;;20.83;;
72125;SDS011;59999;51.676;22.650;2022-08-19T01:16:00;29.08;;;20.17;;
72125;SDS011;59999;51.676;22.650;2022-08-19T01:18:29;33.80;;;20.90;;
72125;SDS011;59999;51.676;22.650;2022-08-19T01:20:58;34.58;;;21.45;;
72125;SDS011;59999;51.676;22.650;2022-08-19T01:23:28;30.50;;;20.17;;
72125;SDS011;59999;51.676;22.650;2022-08-19T01:26:12;31.88;;;20.50;;
72125;SDS011;59999;51.676;22.650;2022-08-19T01:28:41;26.85;;;18.63;;
72125;SDS011;59999;51.676;22.650;2022-08-19T01:31:14;28.40;;;18.30;;
72125;SDS011;59999;51.676;22.650;2022-08-19T01:33:41;25.15;;;17.98;;
72125;SDS011;59999;51.676;22.650;2022-08-19T01:36:10;30.13;;;20.30;;
72125;SDS011;59999;51.676;22.650;2022-08-19T01:38:39;33.83;;;21.20;;
72125;SDS011;59999;51.676;22.650;2022-08-19T01:41:08;30.70;;;20.80;;
72125;SDS011;59999;51.676;22.650;2022-08-19T01:43:36;31.97;;;21.73;;
72125;SDS011;59999;51.676;22.650;2022-08-19T01:46:03;34.85;;;22.42;;
72125;SDS011;59999;51.676;22.650;2022-08-19T01:48:37;34.75;;;22.80;;
72125;SDS011;59999;51.676;22.650;2022-08-19T01:51:04;33.40;;;23.40;;
72125;SDS011;59999;51.676;22.650;2022-08-19T01:53:30;35.88;;;24.25;;
72125;SDS011;59999;51.676;22.650;2022-08-19T01:55:56;35.00;;;22.93;;
72125;SDS011;59999;51.676;22.650;2022-08-19T01:58:24;36.67;;;24.33;;
72125;SDS011;59999;51.676;22.650;2022-08-19T02:00:55;34.67;;;23.75;;
72125;SDS011;59999;51.676;22.650;2022-08-19T02:03:23;40.10;;;25.83;;
72125;SDS011;59999;51.676;22.650;2022-08-19T02:05:53;42.53;;;25.75;;
72125;SDS011;59999;51.676;22.650;2022-08-19T02:08:21;40.37;;;26.93;;
72125;SDS011;59999;51.676;22.650;2022-08-19T02:10:47;43.58;;;26.33;;
72125;SDS011;59999;51.676;22.650;2022-08-19T02:13:15;40.53;;;26.67;;
72125;SDS011;59999;51.676;22.650;2022-08-19T02:15:41;40.33;;;24.42;;
72125;SDS011;59999;51.676;22.650;2022-08-19T02:18:08;34.75;;;23.83;;
72125;SDS011;59999;51.676;22.650;2022-08-19T02:20:34;40.07;;;24.70;;
72125;SDS011;59999;51.676;22.650;2022-08-19T02:23:01;39.35;;;25.77;;
72125;SDS011;59999;51.676;22.650;2022-08-19T02:25:27;43.05;;;25.70;;
72125;SDS011;59999;51.676;22.650;2022-08-19T02:27:54;38.47;;;25.25;;
72125;SDS011;59999;51.676;22.650;2022-08-19T02:30:20;35.67;;;23.97;;
72125;SDS011;59999;51.676;22.650;2022-08-19T02:32:46;35.38;;;24.40;;
72125;SDS011;59999;51.676;22.650;2022-08-19T02:35:12;37.53;;;23.35;;
72125;SDS011;59999;51.676;22.650;2022-08-19T02:37:40;38.47;;;25.67;;
72125;SDS011;59999;51.676;22.650;2022-08-19T02:40:26;39.15;;;25.77;;
72125;SDS011;59999;51.676;22.650;2022-08-19T02:42:53;43.37;;;27.40;;
72125;SDS011;59999;51.676;22.650;2022-08-19T02:45:19;44.22;;;26.27;;
72125;SDS011;59999;51.676;22.650;2022-08-19T02:47:46;40.70;;;25.58;;
72125;SDS011;59999;51.676;22.650;2022-08-19T02:50:12;36.47;;;23.67;;
72125;SDS011;59999;51.676;22.650;2022-08-19T02:52:38;42.40;;;25.70;;
72125;SDS011;59999;51.676;22.650;2022-08-19T02:55:05;44.40;;;25.63;;
72125;SDS011;59999;51.676;22.650;2022-08-19T02:57:31;37.28;;;24.35;;
72125;SDS011;59999;51.676;22.650;2022-08-19T02:59:58;41.10;;;24.70;;
72125;SDS011;59999;51.676;22.650;2022-08-19T03:02:24;36.90;;;24.60;;
72125;SDS011;59999;51.676;22.650;2022-08-19T03:04:50;42.27;;;25.57;;
72125;SDS011;59999;51.676;22.650;2022-08-19T03:07:16;43.90;;;26.57;;
72125;SDS011;59999;51.676;22.650;2022-08-19T03:09:44;41.95;;;26.55;;
72125;SDS011;59999;51.676;22.650;2022-08-19T03:12:10;38.63;;;24.77;;
72125;SDS011;59999;51.676;22.650;2022-08-19T03:14:36;35.70;;;22.97;;
72125;SDS011;59999;51.676;22.650;2022-08-19T03:17:03;32.93;;;22.20;;
72125;SDS011;59999;51.676;22.650;2022-08-19T03:19:30;32.63;;;22.02;;
72125;SDS011;59999;51.676;22.650;2022-08-19T03:21:56;32.30;;;22.23;;
72125;SDS011;59999;51.676;22.650;2022-08-19T03:24:24;28.90;;;20.85;;
72125;SDS011;59999;51.676;22.650;2022-08-19T03:26:51;27.35;;;19.27;;
72125;SDS011;59999;51.676;22.650;2022-08-19T03:29:20;31.40;;;19.83;;
72125;SDS011;59999;51.676;22.650;2022-08-19T03:31:46;29.55;;;18.58;;
72125;SDS011;59999;51.676;22.650;2022-08-19T03:34:13;33.20;;;20.60;;
72125;SDS011;59999;51.676;22.650;2022-08-19T03:36:42;30.05;;;20.40;;
72125;SDS011;59999;51.676;22.650;2022-08-19T03:39:09;29.37;;;20.43;;
72125;SDS011;59999;51.676;22.650;2022-08-19T03:41:37;30.75;;;20.70;;
72125;SDS011;59999;51.676;22.650;2022-08-19T03:44:05;29.58;;;20.50;;
72125;SDS011;59999;51.676;22.650;2022-08-19T03:46:34;29.08;;;21.40;;
72125;SDS011;59999;51.676;22.650;2022-08-19T03:49:03;29.55;;;20.55;;
72125;SDS011;59999;51.676;22.650;2022-08-19T03:51:34;30.33;;;21.50;;
72125;SDS011;59999;51.676;22.650;2022-08-19T03:54:04;33.28;;;21.88;;
72125;SDS011;59999;51.676;22.650;2022-08-19T03:56:35;35.28;;;24.60;;
72125;SDS011;59999;51.676;22.650;2022-08-19T03:59:03;36.22;;;25.63;;
72125;SDS011;59999;51.676;22.650;2022-08-19T04:01:31;37.65;;;24.50;;
72125;SDS011;59999;51.676;22.650;2022-08-19T04:03:57;34.57;;;24.57;;
72125;SDS011;59999;51.676;22.650;2022-08-19T04:06:28;35.78;;;24.63;;
72125;SDS011;59999;51.676;22.650;2022-08-19T04:08:56;39.08;;;24.92;;
72125;SDS011;59999;51.676;22.650;2022-08-19T04:11:25;38.95;;;25.48;;
72125;SDS011;59999;51.676;22.650;2022-08-19T04:13:53;35.60;;;24.20;;
72125;SDS011;59999;51.676;22.650;2022-08-19T04:16:20;36.80;;;24.63;;
72125;SDS011;59999;51.676;22.650;2022-08-19T04:18:47;39.05;;;25.33;;
72125;SDS011;59999;51.676;22.650;2022-08-19T04:21:18;40.63;;;25.35;;
72125;SDS011;59999;51.676;22.650;2022-08-19T04:23:46;34.03;;;23.73;;
72125;SDS011;59999;51.676;22.650;2022-08-19T04:26:14;34.63;;;23.03;;
72125;SDS011;59999;51.676;22.650;2022-08-19T04:28:42;34.80;;;23.75;;
72125;SDS011;59999;51.676;22.650;2022-08-19T04:31:13;35.22;;;23.85;;
72125;SDS011;59999;51.676;22.650;2022-08-19T04:33:47;33.28;;;22.42;;
72125;SDS011;59999;51.676;22.650;2022-08-19T04:36:20;34.03;;;23.55;;
72125;SDS011;59999;51.676;22.650;2022-08-19T04:38:54;39.57;;;23.50;;
72125;SDS011;59999;51.676;22.650;2022-08-19T04:41:25;32.35;;;22.85;;
72125;SDS011;59999;51.676;22.650;2022-08-19T04:44:10;35.92;;;22.50;;
72125;SDS011;59999;51.676;22.650;2022-08-19T04:46:36;34.80;;;22.65;;
72125;SDS011;59999;51.676;22.650;2022-08-19T04:49:03;35.90;;;22.95;;
72125;SDS011;59999;51.676;22.650;2022-08-19T04:51:31;33.77;;;23.13;;
72125;SDS011;59999;51.676;22.650;2022-08-19T04:53:59;33.10;;;21.80;;
72125;SDS011;59999;51.676;22.650;2022-08-19T04:56:27;33.17;;;23.00;;
72125;SDS011;59999;51.676;22.650;2022-08-19T04:58:53;32.38;;;22.52;;
72125;SDS011;59999;51.676;22.650;2022-08-19T05:01:22;34.67;;;23.42;;
72125;SDS011;59999;51.676;22.650;2022-08-19T05:03:50;34.07;;;23.53;;
72125;SDS011;59999;51.676;22.650;2022-08-19T05:06:17;33.28;;;22.60;;
72125;SDS011;59999;51.676;22.650;2022-08-19T05:08:44;32.65;;;22.23;;
72125;SDS011;59999;51.676;22.650;2022-08-19T05:11:44;34.33;;;22.23;;
72125;SDS011;59999;51.676;22.650;2022-08-19T05:14:05;28.95;;;21.10;;
72125;SDS011;59999;51.676;22.650;2022-08-19T05:16:31;31.47;;;21.30;;
72125;SDS011;59999;51.676;22.650;2022-08-19T05:18:57;30.80;;;22.05;;
72125;SDS011;59999;51.676;22.650;2022-08-19T05:21:42;33.55;;;21.42;;
72125;SDS011;59999;51.676;22.650;2022-08-19T05:24:27;29.02;;;19.58;;
72125;SDS011;59999;51.676;22.650;2022-08-19T05:26:54;31.53;;;19.97;;
72125;SDS011;59999;51.676;22.650;2022-08-19T05:29:26;34.58;;;21.30;;
72125;SDS011;59999;51.676;22.650;2022-08-19T05:31:53;28.58;;;20.25;;
72125;SDS011;59999;51.676;22.650;2022-08-19T05:34:20;31.15;;;20.40;;
72125;SDS011;59999;51.676;22.650;2022-08-19T05:36:50;27.60;;;18.90;;
72125;SDS011;59999;51.676;22.650;2022-08-19T05:39:23;29.27;;;19.67;;
72125;SDS011;59999;51.676;22.650;2022-08-19T05:41:53;29.70;;;19.65;;
72125;SDS011;59999;51.676;22.650;2022-08-19T05:44:26;27.10;;;19.05;;
72125;SDS011;59999;51.676;22.650;2022-08-19T05:46:57;31.10;;;18.98;;
72125;SDS011;59999;51.676;22.650;2022-08-19T05:49:25;23.90;;;17.33;;
72125;SDS011;59999;51.676;22.650;2022-08-19T05:51:52;23.40;;;16.83;;
72125;SDS011;59999;51.676;22.650;2022-08-19T05:54:19;24.65;;;17.65;;
72125;SDS011;59999;51.676;22.650;2022-08-19T05:56:45;24.38;;;16.63;;
72125;SDS011;59999;51.676;22.650;2022-08-19T05:59:13;25.80;;;17.75;;
72125;SDS011;59999;51.676;22.650;2022-08-19T06:01:43;25.05;;;17.58;;
72125;SDS011;59999;51.676;22.650;2022-08-19T06:04:11;26.47;;;16.83;;
72125;SDS011;59999;51.676;22.650;2022-08-19T06:06:42;22.70;;;16.33;;
72125;SDS011;59999;51.676;22.650;2022-08-19T06:09:08;22.25;;;15.43;;
72125;SDS011;59999;51.676;22.650;2022-08-19T06:11:37;21.02;;;14.85;;
72125;SDS011;59999;51.676;22.650;2022-08-19T06:14:15;23.90;;;15.43;;
72125;SDS011;59999;51.676;22.650;2022-08-19T06:16:45;21.65;;;15.35;;
72125;SDS011;59999;51.676;22.650;2022-08-19T06:19:12;19.60;;;15.05;;
72125;SDS011;59999;51.676;22.650;2022-08-19T06:21:41;21.40;;;14.18;;
72125;SDS011;59999;51.676;22.650;2022-08-19T06:24:10;21.98;;;14.50;;
72125;SDS011;59999;51.676;22.650;2022-08-19T06:26:39;22.43;;;14.23;;
72125;SDS011;59999;51.676;22.650;2022-08-19T06:29:08;23.55;;;14.27;;
72125;SDS011;59999;51.676;22.650;2022-08-19T06:31:35;18.90;;;13.27;;
72125;SDS011;59999;51.676;22.650;2022-08-19T06:34:05;21.13;;;13.38;;
72125;SDS011;59999;51.676;22.650;2022-08-19T06:36:35;20.23;;;13.38;;
72125;SDS011;59999;51.676;22.650;2022-08-19T06:39:04;17.03;;;12.40;;
72125;SDS011;59999;51.676;22.650;2022-08-19T06:41:32;20.67;;;13.48;;
72125;SDS011;59999;51.676;22.650;2022-08-19T06:44:01;18.50;;;13.05;;
72125;SDS011;59999;51.676;22.650;2022-08-19T06:46:28;19.52;;;12.27;;
72125;SDS011;59999;51.676;22.650;2022-08-19T06:48:54;18.67;;;12.30;;
72125;SDS011;59999;51.676;22.650;2022-08-19T06:51:20;17.52;;;11.25;;
72125;SDS011;59999;51.676;22.650;2022-08-19T06:53:48;17.38;;;11.73;;
72125;SDS011;59999;51.676;22.650;2022-08-19T06:56:15;17.25;;;11.88;;
72125;SDS011;59999;51.676;22.650;2022-08-19T06:58:42;17.40;;;11.57;;
72125;SDS011;59999;51.676;22.650;2022-08-19T07:01:09;15.53;;;11.57;;
72125;SDS011;59999;51.676;22.650;2022-08-19T07:03:35;14.85;;;11.00;;
72125;SDS011;59999;51.676;22.650;2022-08-19T07:06:03;21.35;;;11.23;;
72125;SDS011;59999;51.676;22.650;2022-08-19T07:08:31;16.73;;;11.55;;
72125;SDS011;59999;51.676;22.650;2022-08-19T07:10:57;13.43;;;10.95;;
72125;SDS011;59999;51.676;22.650;2022-08-19T07:13:23;15.67;;;11.07;;
72125;SDS011;59999;51.676;22.650;2022-08-19T07:15:50;16.92;;;10.57;;
72125;SDS011;59999;51.676;22.650;2022-08-19T07:18:19;17.40;;;11.10;;
72125;SDS011;59999;51.676;22.650;2022-08-19T07:20:46;15.18;;;10.30;;
72125;SDS011;59999;51.676;22.650;2022-08-19T07:23:13;13.65;;;10.27;;
72125;SDS011;59999;51.676;22.650;2022-08-19T07:25:39;15.20;;;10.03;;
72125;SDS011;59999;51.676;22.650;2022-08-19T07:28:05;18.60;;;9.73;;
72125;SDS011;59999;51.676;22.650;2022-08-19T07:30:36;13.30;;;10.00;;
72125;SDS011;59999;51.676;22.650;2022-08-19T07:33:02;14.23;;;10.15;;
72125;SDS011;59999;51.676;22.650;2022-08-19T07:35:28;15.47;;;9.60;;
72125;SDS011;59999;51.676;22.650;2022-08-19T07:37:57;13.43;;;10.05;;
72125;SDS011;59999;51.676;22.650;2022-08-19T07:40:24;17.45;;;8.80;;
72125;SDS011;59999;51.676;22.650;2022-08-19T07:42:50;14.18;;;9.02;;
72125;SDS011;59999;51.676;22.650;2022-08-19T07:45:16;12.77;;;8.80;;
72125;SDS011;59999;51.676;22.650;2022-08-19T07:47:42;13.90;;;8.95;;
72125;SDS011;59999;51.676;22.650;2022-08-19T07:50:09;12.13;;;8.50;;
72125;SDS011;59999;51.676;22.650;2022-08-19T07:52:37;14.30;;;7.68;;
72125;SDS011;59999;51.676;22.650;2022-08-19T07:55:08;12.20;;;8.73;;
72125;SDS011;59999;51.676;22.650;2022-08-19T07:57:35;12.85;;;8.13;;
72125;SDS011;59999;51.676;22.650;2022-08-19T08:00:02;11.25;;;7.68;;
72125;SDS011;59999;51.676;22.650;2022-08-19T08:02:29;11.48;;;7.22;;
72125;SDS011;59999;51.676;22.650;2022-08-19T08:04:55;13.80;;;7.17;;
72125;SDS011;59999;51.676;22.650;2022-08-19T08:07:40;11.15;;;6.93;;
72125;SDS011;59999;51.676;22.650;2022-08-19T08:10:24;13.63;;;9.43;;
72125;SDS011;59999;51.676;22.650;2022-08-19T08:12:51;10.10;;;7.15;;
72125;SDS011;59999;51.676;22.650;2022-08-19T08:15:17;12.52;;;7.32;;
72125;SDS011;59999;51.676;22.650;2022-08-19T08:17:44;12.00;;;7.17;;
72125;SDS011;59999;51.676;22.650;2022-08-19T08:20:11;11.23;;;6.35;;
72125;SDS011;59999;51.676;22.650;2022-08-19T08:22:42;11.48;;;6.32;;
72125;SDS011;59999;51.676;22.650;2022-08-19T08:25:28;11.65;;;6.90;;
72125;SDS011;59999;51.676;22.650;2022-08-19T08:27:55;8.90;;;6.18;;
72125;SDS011;59999;51.676;22.650;2022-08-19T08:30:23;9.27;;;6.33;;
72125;SDS011;59999;51.676;22.650;2022-08-19T08:32:50;11.00;;;7.10;;
72125;SDS011;59999;51.676;22.650;2022-08-19T08:35:18;10.75;;;6.00;;
72125;SDS011;59999;51.676;22.650;2022-08-19T08:37:46;8.57;;;5.85;;
72125;SDS011;59999;51.676;22.650;2022-08-19T08:42:56;8.77;;;6.00;;
72125;SDS011;59999;51.676;22.650;2022-08-19T08:45:36;10.45;;;5.78;;
72125;SDS011;59999;51.676;22.650;2022-08-19T08:48:18;12.40;;;5.63;;
72125;SDS011;59999;51.676;22.650;2022-08-19T08:50:49;8.43;;;5.90;;
72125;SDS011;59999;51.676;22.650;2022-08-19T08:53:19;9.93;;;5.85;;
72125;SDS011;59999;51.676;22.650;2022-08-19T08:55:45;10.77;;;5.83;;
72125;SDS011;59999;51.676;22.650;2022-08-19T08:58:15;11.23;;;6.40;;
72125;SDS011;59999;51.676;22.650;2022-08-19T09:00:47;10.15;;;6.22;;
72125;SDS011;59999;51.676;22.650;2022-08-19T09:03:21;10.90;;;5.88;;
72125;SDS011;59999;51.676;22.650;2022-08-19T09:06:00;9.60;;;6.30;;
72125;SDS011;59999;51.676;22.650;2022-08-19T09:14:21;12.68;;;6.38;;
72125;SDS011;59999;51.676;22.650;2022-08-19T09:17:07;11.13;;;6.30;;
72125;SDS011;59999;51.676;22.650;2022-08-19T09:19:36;11.63;;;6.47;;
72125;SDS011;59999;51.676;22.650;2022-08-19T09:22:13;10.77;;;6.30;;
72125;SDS011;59999;51.676;22.650;2022-08-19T09:24:40;9.35;;;5.55;;
72125;SDS011;59999;51.676;22.650;2022-08-19T09:27:06;12.23;;;5.60;;
72125;SDS011;59999;51.676;22.650;2022-08-19T09:29:32;10.02;;;5.90;;
72125;SDS011;59999;51.676;22.650;2022-08-19T09:31:58;20.30;;;6.10;;
72125;SDS011;59999;51.676;22.650;2022-08-19T09:34:24;16.48;;;6.40;;
72125;SDS011;59999;51.676;22.650;2022-08-19T09:36:50;10.13;;;5.60;;
72125;SDS011;59999;51.676;22.650;2022-08-19T09:39:18;21.90;;;6.32;;
72125;SDS011;59999;51.676;22.650;2022-08-19T09:41:44;11.50;;;5.63;;
72125;SDS011;59999;51.676;22.650;2022-08-19T09:44:10;9.63;;;5.13;;
72125;SDS011;59999;51.676;22.650;2022-08-19T09:46:38;7.82;;;5.30;;
72125;SDS011;59999;51.676;22.650;2022-08-19T09:49:04;8.00;;;5.68;;
72125;SDS011;59999;51.676;22.650;2022-08-19T09:51:31;8.10;;;5.10;;
72125;SDS011;59999;51.676;22.650;2022-08-19T09:53:59;8.45;;;5.40;;
72125;SDS011;59999;51.676;22.650;2022-08-19T09:56:27;9.95;;;6.03;;
72125;SDS011;59999;51.676;22.650;2022-08-19T09:58:57;10.77;;;5.43;;
72125;SDS011;59999;51.676;22.650;2022-08-19T10:01:24;9.18;;;5.60;;
72125;SDS011;59999;51.676;22.650;2022-08-19T10:03:53;8.53;;;5.43;;
72125;SDS011;59999;51.676;22.650;2022-08-19T10:06:21;9.98;;;5.22;;
72125;SDS011;59999;51.676;22.650;2022-08-19T10:08:49;8.38;;;5.25;;
72125;SDS011;59999;51.676;22.650;2022-08-19T10:11:17;7.40;;;4.72;;
72125;SDS011;59999;51.676;22.650;2022-08-19T10:13:45;8.60;;;4.78;;
72125;SDS011;59999;51.676;22.650;2022-08-19T10:16:12;9.13;;;4.90;;
72125;SDS011;59999;51.676;22.650;2022-08-19T10:18:41;9.35;;;4.78;;
72125;SDS011;59999;51.676;22.650;2022-08-19T10:23:40;10.80;;;4.65;;
72125;SDS011;59999;51.676;22.650;2022-08-19T10:26:11;9.20;;;5.07;;
72125;SDS011;59999;51.676;22.650;2022-08-19T10:28:39;9.83;;;4.70;;
72125;SDS011;59999;51.676;22.650;2022-08-19T10:31:11;10.63;;;4.72;;
72125;SDS011;59999;51.676;22.650;2022-08-19T10:33:43;8.65;;;5.30;;
72125;SDS011;59999;51.676;22.650;2022-08-19T10:36:11;10.82;;;5.40;;
72125;SDS011;59999;51.676;22.650;2022-08-19T10:38:43;9.90;;;5.43;;
72125;SDS011;59999;51.676;22.650;2022-08-19T10:41:12;11.50;;;5.13;;
72125;SDS011;59999;51.676;22.650;2022-08-19T10:43:40;8.55;;;5.20;;
72125;SDS011;59999;51.676;22.650;2022-08-19T10:46:10;11.82;;;5.50;;
72125;SDS011;59999;51.676;22.650;2022-08-19T10:48:39;8.30;;;4.97;;
72125;SDS011;59999;51.676;22.650;2022-08-19T10:51:05;13.05;;;5.43;;
72125;SDS011;59999;51.676;22.650;2022-08-19T10:53:51;9.10;;;5.37;;
72125;SDS011;59999;51.676;22.650;2022-08-19T10:56:17;9.05;;;5.60;;
72125;SDS011;59999;51.676;22.650;2022-08-19T10:59:03;8.05;;;4.95;;
72125;SDS011;59999;51.676;22.650;2022-08-19T11:01:30;11.18;;;5.32;;
72125;SDS011;59999;51.676;22.650;2022-08-19T11:03:59;10.20;;;5.30;;
72125;SDS011;59999;51.676;22.650;2022-08-19T11:06:32;8.37;;;4.93;;
72125;SDS011;59999;51.676;22.650;2022-08-19T11:08:58;7.78;;;5.25;;
72125;SDS011;59999;51.676;22.650;2022-08-19T11:11:25;10.02;;;4.75;;
72125;SDS011;59999;51.676;22.650;2022-08-19T11:13:52;7.35;;;5.00;;
72125;SDS011;59999;51.676;22.650;2022-08-19T11:16:19;9.93;;;4.93;;
72125;SDS011;59999;51.676;22.650;2022-08-19T11:18:48;10.75;;;5.43;;
72125;SDS011;59999;51.676;22.650;2022-08-19T11:21:26;10.90;;;5.10;;
72125;SDS011;59999;51.676;22.650;2022-08-19T11:23:58;9.68;;;5.05;;
72125;SDS011;59999;51.676;22.650;2022-08-19T11:26:27;10.38;;;4.82;;
72125;SDS011;59999;51.676;22.650;2022-08-19T11:28:55;9.13;;;5.20;;
72125;SDS011;59999;51.676;22.650;2022-08-19T11:31:23;9.93;;;5.35;;
72125;SDS011;59999;51.676;22.650;2022-08-19T11:33:51;10.43;;;5.15;;
72125;SDS011;59999;51.676;22.650;2022-08-19T11:36:20;9.35;;;5.30;;
72125;SDS011;59999;51.676;22.650;2022-08-19T11:38:47;11.13;;;6.32;;
72125;SDS011;59999;51.676;22.650;2022-08-19T11:41:16;9.90;;;5.30;;
72125;SDS011;59999;51.676;22.650;2022-08-19T11:43:43;7.88;;;5.05;;
72125;SDS011;59999;51.676;22.650;2022-08-19T11:46:10;10.65;;;5.13;;
72125;SDS011;59999;51.676;22.650;2022-08-19T11:48:38;10.20;;;4.80;;
72125;SDS011;59999;51.676;22.650;2022-08-19T11:51:06;8.82;;;5.18;;
72125;SDS011;59999;51.676;22.650;2022-08-19T11:53:35;8.77;;;5.10;;
72125;SDS011;59999;51.676;22.650;2022-08-19T11:56:02;8.63;;;4.90;;
72125;SDS011;59999;51.676;22.650;2022-08-19T11:58:29;9.07;;;5.05;;
72125;SDS011;59999;51.676;22.650;2022-08-19T12:01:04;9.80;;;5.55;;
72125;SDS011;59999;51.676;22.650;2022-08-19T12:03:32;11.05;;;5.15;;
72125;SDS011;59999;51.676;22.650;2022-08-19T12:06:02;10.97;;;5.07;;
72125;SDS011;59999;51.676;22.650;2022-08-19T12:08:32;8.52;;;5.00;;
72125;SDS011;59999;51.676;22.650;2022-08-19T12:10:58;10.30;;;5.57;;
72125;SDS011;59999;51.676;22.650;2022-08-19T12:13:27;8.98;;;5.45;;
72125;SDS011;59999;51.676;22.650;2022-08-19T12:15:55;9.50;;;5.20;;
72125;SDS011;59999;51.676;22.650;2022-08-19T12:18:22;10.13;;;5.70;;
72125;SDS011;59999;51.676;22.650;2022-08-19T12:20:50;10.57;;;5.95;;
72125;SDS011;59999;51.676;22.650;2022-08-19T12:23:16;10.18;;;5.32;;
72125;SDS011;59999;51.676;22.650;2022-08-19T12:25:43;8.38;;;5.40;;
72125;SDS011;59999;51.676;22.650;2022-08-19T12:28:18;9.55;;;5.22;;
72125;SDS011;59999;51.676;22.650;2022-08-19T12:30:46;9.00;;;5.17;;
72125;SDS011;59999;51.676;22.650;2022-08-19T12:33:12;8.80;;;5.25;;
72125;SDS011;59999;51.676;22.650;2022-08-19T12:35:42;13.98;;;5.80;;
72125;SDS011;59999;51.676;22.650;2022-08-19T12:38:10;11.45;;;5.40;;
72125;SDS011;59999;51.676;22.650;2022-08-19T12:40:36;10.07;;;5.68;;
72125;SDS011;59999;51.676;22.650;2022-08-19T12:43:05;10.83;;;5.00;;
72125;SDS011;59999;51.676;22.650;2022-08-19T12:45:33;8.55;;;5.30;;
72125;SDS011;59999;51.676;22.650;2022-08-19T12:47:59;7.65;;;5.18;;
72125;SDS011;59999;51.676;22.650;2022-08-19T12:50:25;10.32;;;4.90;;
72125;SDS011;59999;51.676;22.650;2022-08-19T12:52:51;10.80;;;5.03;;
72125;SDS011;59999;51.676;22.650;2022-08-19T12:55:17;7.88;;;5.25;;
72125;SDS011;59999;51.676;22.650;2022-08-19T12:57:44;8.27;;;5.07;;
72125;SDS011;59999;51.676;22.650;2022-08-19T13:00:12;12.15;;;5.78;;
72125;SDS011;59999;51.676;22.650;2022-08-19T13:02:40;12.27;;;5.23;;
72125;SDS011;59999;51.676;22.650;2022-08-19T13:05:13;9.25;;;5.30;;
72125;SDS011;59999;51.676;22.650;2022-08-19T13:07:41;8.75;;;5.50;;
72125;SDS011;59999;51.676;22.650;2022-08-19T13:10:09;10.05;;;5.40;;
72125;SDS011;59999;51.676;22.650;2022-08-19T13:12:38;9.50;;;5.18;;
72125;SDS011;59999;51.676;22.650;2022-08-19T13:15:06;10.70;;;5.30;;
72125;SDS011;59999;51.676;22.650;2022-08-19T13:17:34;9.02;;;5.30;;
72125;SDS011;59999;51.676;22.650;2022-08-19T13:20:01;8.57;;;5.80;;
72125;SDS011;59999;51.676;22.650;2022-08-19T13:22:27;10.70;;;5.38;;
72125;SDS011;59999;51.676;22.650;2022-08-19T13:24:53;9.37;;;5.73;;
72125;SDS011;59999;51.676;22.650;2022-08-19T13:27:19;8.90;;;5.30;;
72125;SDS011;59999;51.676;22.650;2022-08-19T13:29:45;7.82;;;5.55;;
72125;SDS011;59999;51.676;22.650;2022-08-19T13:32:29;9.80;;;5.55;;
72125;SDS011;59999;51.676;22.650;2022-08-19T13:35:14;9.55;;;5.40;;
72125;SDS011;59999;51.676;22.650;2022-08-19T13:37:40;9.23;;;5.40;;
72125;SDS011;59999;51.676;22.650;2022-08-19T13:40:07;12.60;;;5.60;;
72125;SDS011;59999;51.676;22.650;2022-08-19T13:42:46;8.30;;;5.63;;
72125;SDS011;59999;51.676;22.650;2022-08-19T13:45:14;10.02;;;5.70;;
72125;SDS011;59999;51.676;22.650;2022-08-19T13:47:41;9.40;;;6.20;;
72125;SDS011;59999;51.676;22.650;2022-08-19T13:50:10;11.97;;;5.43;;
72125;SDS011;59999;51.676;22.650;2022-08-19T13:52:38;12.43;;;6.07;;
72125;SDS011;59999;51.676;22.650;2022-08-19T13:55:05;10.90;;;6.13;;
72125;SDS011;59999;51.676;22.650;2022-08-19T13:57:32;11.27;;;5.30;;
72125;SDS011;59999;51.676;22.650;2022-08-19T13:59:59;9.43;;;5.75;;
72125;SDS011;59999;51.676;22.650;2022-08-19T14:02:24;7.30;;;5.03;;
72125;SDS011;59999;51.676;22.650;2022-08-19T14:04:52;9.23;;;5.43;;
72125;SDS011;59999;51.676;22.650;2022-08-19T14:07:18;10.00;;;5.53;;
72125;SDS011;59999;51.676;22.650;2022-08-19T14:09:44;8.95;;;5.68;;
72125;SDS011;59999;51.676;22.650;2022-08-19T14:12:10;10.33;;;5.70;;
72125;SDS011;59999;51.676;22.650;2022-08-19T14:14:36;8.30;;;5.00;;
72125;SDS011;59999;51.676;22.650;2022-08-19T14:17:06;9.85;;;5.40;;
72125;SDS011;59999;51.676;22.650;2022-08-19T14:19:33;9.02;;;5.25;;
72125;SDS011;59999;51.676;22.650;2022-08-19T14:21:59;10.23;;;5.77;;
72125;SDS011;59999;51.676;22.650;2022-08-19T14:24:25;9.25;;;5.28;;
72125;SDS011;59999;51.676;22.650;2022-08-19T14:26:51;10.77;;;5.32;;
72125;SDS011;59999;51.676;22.650;2022-08-19T14:29:17;12.30;;;5.40;;
72125;SDS011;59999;51.676;22.650;2022-08-19T14:31:43;7.28;;;4.70;;
72125;SDS011;59999;51.676;22.650;2022-08-19T14:34:09;12.60;;;5.20;;
72125;SDS011;59999;51.676;22.650;2022-08-19T14:36:35;9.40;;;4.88;;
72125;SDS011;59999;51.676;22.650;2022-08-19T14:39:02;10.90;;;5.10;;